sensor_id;sensor_type;location;lat;lon;timestamp;P1;durP1;ratioP1;P2;durP2;ratioP2
57443;SDS011;43289;52.962;6.196;2022-07-23T00:00:45;5.63;;;3.53;;
57443;SDS011;43289;52.962;6.196;2022-07-23T00:03:12;5.50;;;3.03;;
57443;SDS011;43289;52.962;6.196;2022-07-23T00:05:38;3.30;;;1.80;;
57443;SDS011;43289;52.962;6.196;2022-07-23T00:08:04;4.50;;;1.85;;
57443;SDS011;43289;52.962;6.196;2022-07-23T00:10:31;3.22;;;2.00;;
57443;SDS011;43289;52.962;6.196;2022-07-23T00:12:56;5.35;;;2.33;;
57443;SDS011;43289;52.962;6.196;2022-07-23T00:15:22;4.18;;;2.63;;
57443;SDS011;43289;52.962;6.196;2022-07-23T00:17:48;3.83;;;2.25;;
57443;SDS011;43289;52.962;6.196;2022-07-23T00:20:14;6.00;;;2.55;;
57443;SDS011;43289;52.962;6.196;2022-07-23T00:22:49;4.30;;;2.85;;
57443;SDS011;43289;52.962;6.196;2022-07-23T00:25:17;6.18;;;3.47;;
57443;SDS011;43289;52.962;6.196;2022-07-23T00:27:43;7.45;;;3.88;;
57443;SDS011;43289;52.962;6.196;2022-07-23T00:30:10;7.90;;;3.85;;
57443;SDS011;43289;52.962;6.196;2022-07-23T00:35:15;8.07;;;5.03;;
57443;SDS011;43289;52.962;6.196;2022-07-23T00:37:44;5.03;;;3.58;;
57443;SDS011;43289;52.962;6.196;2022-07-23T00:40:10;8.05;;;4.85;;
57443;SDS011;43289;52.962;6.196;2022-07-23T00:42:36;7.32;;;4.60;;
57443;SDS011;43289;52.962;6.196;2022-07-23T00:45:02;6.05;;;3.85;;
57443;SDS011;43289;52.962;6.196;2022-07-23T00:47:28;5.95;;;4.25;;
57443;SDS011;43289;52.962;6.196;2022-07-23T00:52:48;5.97;;;3.90;;
57443;SDS011;43289;52.962;6.196;2022-07-23T00:55:14;5.35;;;3.58;;
57443;SDS011;43289;52.962;6.196;2022-07-23T00:57:40;7.45;;;3.30;;
57443;SDS011;43289;52.962;6.196;2022-07-23T01:00:08;6.38;;;3.85;;
57443;SDS011;43289;52.962;6.196;2022-07-23T01:02:34;6.10;;;4.18;;
57443;SDS011;43289;52.962;6.196;2022-07-23T01:05:00;6.32;;;4.07;;
57443;SDS011;43289;52.962;6.196;2022-07-23T01:07:26;8.73;;;4.82;;
57443;SDS011;43289;52.962;6.196;2022-07-23T01:09:53;6.57;;;3.90;;
57443;SDS011;43289;52.962;6.196;2022-07-23T01:12:33;7.55;;;4.35;;
57443;SDS011;43289;52.962;6.196;2022-07-23T01:14:59;7.05;;;4.20;;
57443;SDS011;43289;52.962;6.196;2022-07-23T01:17:25;8.00;;;4.00;;
57443;SDS011;43289;52.962;6.196;2022-07-23T01:19:51;5.68;;;3.35;;
57443;SDS011;43289;52.962;6.196;2022-07-23T01:22:30;5.03;;;3.28;;
57443;SDS011;43289;52.962;6.196;2022-07-23T01:24:56;5.97;;;3.40;;
57443;SDS011;43289;52.962;6.196;2022-07-23T01:30:43;5.13;;;3.42;;
57443;SDS011;43289;52.962;6.196;2022-07-23T01:33:10;5.85;;;3.80;;
57443;SDS011;43289;52.962;6.196;2022-07-23T01:35:35;5.30;;;3.22;;
57443;SDS011;43289;52.962;6.196;2022-07-23T01:38:07;4.65;;;2.95;;
57443;SDS011;43289;52.962;6.196;2022-07-23T01:40:33;3.00;;;1.45;;
57443;SDS011;43289;52.962;6.196;2022-07-23T01:42:59;3.30;;;1.80;;
57443;SDS011;43289;52.962;6.196;2022-07-23T01:45:24;3.22;;;1.67;;
57443;SDS011;43289;52.962;6.196;2022-07-23T01:47:50;1.75;;;1.05;;
57443;SDS011;43289;52.962;6.196;2022-07-23T01:50:16;2.25;;;1.33;;
57443;SDS011;43289;52.962;6.196;2022-07-23T01:52:41;4.38;;;2.22;;
57443;SDS011;43289;52.962;6.196;2022-07-23T01:55:07;4.00;;;2.42;;
57443;SDS011;43289;52.962;6.196;2022-07-23T01:57:33;5.80;;;3.10;;
57443;SDS011;43289;52.962;6.196;2022-07-23T01:59:59;4.38;;;2.35;;
57443;SDS011;43289;52.962;6.196;2022-07-23T02:02:24;5.13;;;3.10;;
57443;SDS011;43289;52.962;6.196;2022-07-23T02:04:50;9.05;;;3.22;;
57443;SDS011;43289;52.962;6.196;2022-07-23T02:07:16;6.18;;;3.90;;
57443;SDS011;43289;52.962;6.196;2022-07-23T02:09:41;5.80;;;2.85;;
57443;SDS011;43289;52.962;6.196;2022-07-23T02:12:07;5.43;;;3.42;;
57443;SDS011;43289;52.962;6.196;2022-07-23T02:14:33;5.38;;;3.10;;
57443;SDS011;43289;52.962;6.196;2022-07-23T02:16:58;28.00;;;4.43;;
57443;SDS011;43289;52.962;6.196;2022-07-23T02:19:24;9.38;;;2.50;;
57443;SDS011;43289;52.962;6.196;2022-07-23T02:21:50;3.53;;;1.40;;
57443;SDS011;43289;52.962;6.196;2022-07-23T02:24:15;4.40;;;1.70;;
57443;SDS011;43289;52.962;6.196;2022-07-23T02:26:42;5.30;;;2.33;;
57443;SDS011;43289;52.962;6.196;2022-07-23T02:29:08;13.70;;;3.03;;
57443;SDS011;43289;52.962;6.196;2022-07-23T02:34:56;3.85;;;1.98;;
57443;SDS011;43289;52.962;6.196;2022-07-23T02:37:21;2.35;;;1.30;;
57443;SDS011;43289;52.962;6.196;2022-07-23T02:39:47;3.38;;;1.60;;
57443;SDS011;43289;52.962;6.196;2022-07-23T02:42:13;4.47;;;1.92;;
57443;SDS011;43289;52.962;6.196;2022-07-23T02:44:40;5.68;;;2.40;;
57443;SDS011;43289;52.962;6.196;2022-07-23T02:47:06;3.47;;;2.20;;
57443;SDS011;43289;52.962;6.196;2022-07-23T02:49:32;5.15;;;2.55;;
57443;SDS011;43289;52.962;6.196;2022-07-23T02:51:57;5.20;;;3.22;;
57443;SDS011;43289;52.962;6.196;2022-07-23T02:54:23;5.53;;;3.15;;
57443;SDS011;43289;52.962;6.196;2022-07-23T02:56:50;5.55;;;3.47;;
57443;SDS011;43289;52.962;6.196;2022-07-23T02:59:16;6.30;;;3.50;;
57443;SDS011;43289;52.962;6.196;2022-07-23T03:01:42;6.03;;;3.25;;
57443;SDS011;43289;52.962;6.196;2022-07-23T03:04:08;6.75;;;3.53;;
57443;SDS011;43289;52.962;6.196;2022-07-23T03:06:34;7.70;;;3.42;;
57443;SDS011;43289;52.962;6.196;2022-07-23T03:09:00;4.03;;;2.45;;
57443;SDS011;43289;52.962;6.196;2022-07-23T03:11:25;5.22;;;2.70;;
57443;SDS011;43289;52.962;6.196;2022-07-23T03:13:51;5.05;;;2.88;;
57443;SDS011;43289;52.962;6.196;2022-07-23T03:16:17;7.28;;;3.28;;
57443;SDS011;43289;52.962;6.196;2022-07-23T03:22:03;6.15;;;3.40;;
57443;SDS011;43289;52.962;6.196;2022-07-23T03:24:29;4.60;;;2.75;;
57443;SDS011;43289;52.962;6.196;2022-07-23T03:27:14;3.45;;;1.63;;
57443;SDS011;43289;52.962;6.196;2022-07-23T03:32:46;1.73;;;1.08;;
57443;SDS011;43289;52.962;6.196;2022-07-23T03:35:12;1.27;;;1.10;;
57443;SDS011;43289;52.962;6.196;2022-07-23T03:37:37;3.13;;;1.42;;
57443;SDS011;43289;52.962;6.196;2022-07-23T03:40:03;3.03;;;1.77;;
57443;SDS011;43289;52.962;6.196;2022-07-23T03:42:29;3.70;;;1.73;;
57443;SDS011;43289;52.962;6.196;2022-07-23T03:44:55;2.80;;;1.92;;
57443;SDS011;43289;52.962;6.196;2022-07-23T03:47:21;4.25;;;2.28;;
57443;SDS011;43289;52.962;6.196;2022-07-23T03:49:49;4.40;;;2.60;;
57443;SDS011;43289;52.962;6.196;2022-07-23T03:52:15;3.92;;;2.45;;
57443;SDS011;43289;52.962;6.196;2022-07-23T03:54:40;6.28;;;3.53;;
57443;SDS011;43289;52.962;6.196;2022-07-23T03:57:06;4.60;;;2.35;;
57443;SDS011;43289;52.962;6.196;2022-07-23T03:59:32;3.50;;;1.80;;
57443;SDS011;43289;52.962;6.196;2022-07-23T04:01:57;3.85;;;2.20;;
57443;SDS011;43289;52.962;6.196;2022-07-23T04:04:40;4.00;;;2.53;;
57443;SDS011;43289;52.962;6.196;2022-07-23T04:07:06;6.53;;;3.00;;
57443;SDS011;43289;52.962;6.196;2022-07-23T04:09:33;7.18;;;3.78;;
57443;SDS011;43289;52.962;6.196;2022-07-23T04:14:51;5.53;;;2.53;;
57443;SDS011;43289;52.962;6.196;2022-07-23T04:17:17;4.82;;;2.35;;
57443;SDS011;43289;52.962;6.196;2022-07-23T04:19:52;5.45;;;2.58;;
57443;SDS011;43289;52.962;6.196;2022-07-23T04:22:18;5.65;;;3.22;;
57443;SDS011;43289;52.962;6.196;2022-07-23T04:24:43;8.38;;;4.55;;
57443;SDS011;43289;52.962;6.196;2022-07-23T04:30:00;8.20;;;4.25;;
57443;SDS011;43289;52.962;6.196;2022-07-23T04:32:26;10.30;;;5.07;;
57443;SDS011;43289;52.962;6.196;2022-07-23T04:34:51;7.72;;;4.30;;
57443;SDS011;43289;52.962;6.196;2022-07-23T04:37:17;6.65;;;3.83;;
57443;SDS011;43289;52.962;6.196;2022-07-23T04:39:43;7.85;;;4.47;;
57443;SDS011;43289;52.962;6.196;2022-07-23T04:42:09;6.95;;;4.22;;
57443;SDS011;43289;52.962;6.196;2022-07-23T04:44:35;8.27;;;4.03;;
57443;SDS011;43289;52.962;6.196;2022-07-23T04:47:00;9.75;;;4.20;;
57443;SDS011;43289;52.962;6.196;2022-07-23T04:49:26;7.60;;;4.70;;
57443;SDS011;43289;52.962;6.196;2022-07-23T04:51:51;7.72;;;4.18;;
57443;SDS011;43289;52.962;6.196;2022-07-23T04:54:17;7.10;;;4.20;;
57443;SDS011;43289;52.962;6.196;2022-07-23T04:56:43;6.50;;;4.43;;
57443;SDS011;43289;52.962;6.196;2022-07-23T04:59:08;6.38;;;4.25;;
57443;SDS011;43289;52.962;6.196;2022-07-23T05:01:34;7.30;;;4.60;;
57443;SDS011;43289;52.962;6.196;2022-07-23T05:03:59;8.80;;;4.38;;
57443;SDS011;43289;52.962;6.196;2022-07-23T05:06:25;6.38;;;3.70;;
57443;SDS011;43289;52.962;6.196;2022-07-23T05:12:16;6.22;;;4.13;;
57443;SDS011;43289;52.962;6.196;2022-07-23T05:14:41;7.82;;;4.50;;
57443;SDS011;43289;52.962;6.196;2022-07-23T05:20:06;7.93;;;4.75;;
57443;SDS011;43289;52.962;6.196;2022-07-23T05:22:38;7.22;;;4.15;;
57443;SDS011;43289;52.962;6.196;2022-07-23T05:25:04;6.88;;;4.50;;
57443;SDS011;43289;52.962;6.196;2022-07-23T05:27:30;10.40;;;4.32;;
57443;SDS011;43289;52.962;6.196;2022-07-23T05:29:55;9.48;;;4.50;;
57443;SDS011;43289;52.962;6.196;2022-07-23T05:32:21;9.45;;;4.70;;
57443;SDS011;43289;52.962;6.196;2022-07-23T05:34:47;8.07;;;4.40;;
57443;SDS011;43289;52.962;6.196;2022-07-23T05:37:12;7.38;;;4.32;;
57443;SDS011;43289;52.962;6.196;2022-07-23T05:39:38;6.95;;;4.78;;
57443;SDS011;43289;52.962;6.196;2022-07-23T05:45:39;8.77;;;4.75;;
57443;SDS011;43289;52.962;6.196;2022-07-23T05:48:05;8.30;;;4.80;;
57443;SDS011;43289;52.962;6.196;2022-07-23T05:50:31;7.78;;;4.75;;
57443;SDS011;43289;52.962;6.196;2022-07-23T05:52:57;9.20;;;4.55;;
57443;SDS011;43289;52.962;6.196;2022-07-23T05:55:22;7.03;;;4.05;;
57443;SDS011;43289;52.962;6.196;2022-07-23T05:57:48;7.25;;;4.53;;
57443;SDS011;43289;52.962;6.196;2022-07-23T06:00:14;7.57;;;4.82;;
57443;SDS011;43289;52.962;6.196;2022-07-23T06:02:40;8.57;;;5.00;;
57443;SDS011;43289;52.962;6.196;2022-07-23T06:05:06;7.18;;;4.28;;
57443;SDS011;43289;52.962;6.196;2022-07-23T06:07:32;9.25;;;4.30;;
57443;SDS011;43289;52.962;6.196;2022-07-23T06:09:59;6.45;;;4.10;;
57443;SDS011;43289;52.962;6.196;2022-07-23T06:12:25;7.05;;;4.15;;
57443;SDS011;43289;52.962;6.196;2022-07-23T06:14:50;7.97;;;4.50;;
57443;SDS011;43289;52.962;6.196;2022-07-23T06:17:17;6.35;;;3.58;;
57443;SDS011;43289;52.962;6.196;2022-07-23T06:22:38;5.50;;;3.60;;
57443;SDS011;43289;52.962;6.196;2022-07-23T06:25:04;5.18;;;3.03;;
57443;SDS011;43289;52.962;6.196;2022-07-23T06:27:30;4.30;;;2.65;;
57443;SDS011;43289;52.962;6.196;2022-07-23T06:29:55;4.38;;;2.05;;
57443;SDS011;43289;52.962;6.196;2022-07-23T06:32:21;7.60;;;2.45;;
57443;SDS011;43289;52.962;6.196;2022-07-23T06:34:47;4.32;;;2.40;;
57443;SDS011;43289;52.962;6.196;2022-07-23T06:37:12;5.82;;;2.42;;
57443;SDS011;43289;52.962;6.196;2022-07-23T06:39:38;3.25;;;1.83;;
57443;SDS011;43289;52.962;6.196;2022-07-23T06:45:06;5.00;;;2.17;;
57443;SDS011;43289;52.962;6.196;2022-07-23T06:47:32;5.60;;;3.05;;
57443;SDS011;43289;52.962;6.196;2022-07-23T06:49:58;3.78;;;2.00;;
57443;SDS011;43289;52.962;6.196;2022-07-23T06:52:24;5.10;;;1.92;;
57443;SDS011;43289;52.962;6.196;2022-07-23T06:54:51;3.15;;;1.50;;
57443;SDS011;43289;52.962;6.196;2022-07-23T06:57:18;3.75;;;1.45;;
57443;SDS011;43289;52.962;6.196;2022-07-23T06:59:44;3.47;;;1.20;;
57443;SDS011;43289;52.962;6.196;2022-07-23T07:02:09;2.70;;;1.30;;
57443;SDS011;43289;52.962;6.196;2022-07-23T07:04:35;4.82;;;1.35;;
57443;SDS011;43289;52.962;6.196;2022-07-23T07:07:01;3.53;;;1.35;;
57443;SDS011;43289;52.962;6.196;2022-07-23T07:09:26;3.35;;;1.33;;
57443;SDS011;43289;52.962;6.196;2022-07-23T07:11:55;1.92;;;1.05;;
57443;SDS011;43289;52.962;6.196;2022-07-23T07:14:21;2.78;;;1.08;;
57443;SDS011;43289;52.962;6.196;2022-07-23T07:16:50;2.83;;;1.27;;
57443;SDS011;43289;52.962;6.196;2022-07-23T07:22:09;1.75;;;1.35;;
57443;SDS011;43289;52.962;6.196;2022-07-23T07:24:35;4.68;;;1.42;;
57443;SDS011;43289;52.962;6.196;2022-07-23T07:27:14;2.88;;;1.40;;
57443;SDS011;43289;52.962;6.196;2022-07-23T07:29:39;2.83;;;1.30;;
57443;SDS011;43289;52.962;6.196;2022-07-23T07:32:05;2.88;;;1.17;;
57443;SDS011;43289;52.962;6.196;2022-07-23T07:34:31;1.90;;;0.90;;
57443;SDS011;43289;52.962;6.196;2022-07-23T07:36:56;2.47;;;0.85;;
57443;SDS011;43289;52.962;6.196;2022-07-23T07:39:22;4.18;;;0.90;;
57443;SDS011;43289;52.962;6.196;2022-07-23T07:41:47;1.58;;;1.00;;
57443;SDS011;43289;52.962;6.196;2022-07-23T07:44:13;1.30;;;0.80;;
57443;SDS011;43289;52.962;6.196;2022-07-23T07:46:39;1.40;;;1.00;;
57443;SDS011;43289;52.962;6.196;2022-07-23T07:49:04;3.92;;;1.40;;
57443;SDS011;43289;52.962;6.196;2022-07-23T07:51:30;5.30;;;1.83;;
57443;SDS011;43289;52.962;6.196;2022-07-23T07:53:55;1.65;;;0.90;;
57443;SDS011;43289;52.962;6.196;2022-07-23T07:56:21;1.75;;;0.90;;
57443;SDS011;43289;52.962;6.196;2022-07-23T07:58:47;1.08;;;0.93;;
57443;SDS011;43289;52.962;6.196;2022-07-23T08:01:13;1.15;;;0.80;;
57443;SDS011;43289;52.962;6.196;2022-07-23T08:03:57;1.45;;;0.90;;
57443;SDS011;43289;52.962;6.196;2022-07-23T08:06:23;3.00;;;0.90;;
57443;SDS011;43289;52.962;6.196;2022-07-23T08:08:51;0.95;;;0.75;;
57443;SDS011;43289;52.962;6.196;2022-07-23T08:14:39;0.95;;;0.80;;
57443;SDS011;43289;52.962;6.196;2022-07-23T08:17:05;0.77;;;0.70;;
57443;SDS011;43289;52.962;6.196;2022-07-23T08:19:31;3.55;;;1.00;;
57443;SDS011;43289;52.962;6.196;2022-07-23T08:21:57;4.72;;;1.05;;
57443;SDS011;43289;52.962;6.196;2022-07-23T08:24:22;1.42;;;0.93;;
57443;SDS011;43289;52.962;6.196;2022-07-23T08:26:48;3.47;;;1.20;;
57443;SDS011;43289;52.962;6.196;2022-07-23T08:29:14;1.23;;;0.93;;
57443;SDS011;43289;52.962;6.196;2022-07-23T08:31:39;1.33;;;0.85;;
57443;SDS011;43289;52.962;6.196;2022-07-23T08:34:05;1.48;;;0.77;;
57443;SDS011;43289;52.962;6.196;2022-07-23T08:36:30;1.88;;;0.85;;
57443;SDS011;43289;52.962;6.196;2022-07-23T08:42:46;2.27;;;1.10;;
57443;SDS011;43289;52.962;6.196;2022-07-23T08:45:13;2.55;;;0.90;;
57443;SDS011;43289;52.962;6.196;2022-07-23T08:47:42;1.42;;;0.90;;
57443;SDS011;43289;52.962;6.196;2022-07-23T08:50:08;1.77;;;0.90;;
57443;SDS011;43289;52.962;6.196;2022-07-23T08:52:35;2.90;;;1.13;;
57443;SDS011;43289;52.962;6.196;2022-07-23T08:55:02;1.38;;;0.90;;
57443;SDS011;43289;52.962;6.196;2022-07-23T08:57:28;0.75;;;0.75;;
57443;SDS011;43289;52.962;6.196;2022-07-23T08:59:54;1.70;;;0.90;;
57443;SDS011;43289;52.962;6.196;2022-07-23T09:02:19;2.65;;;1.10;;
57443;SDS011;43289;52.962;6.196;2022-07-23T09:04:55;4.22;;;1.17;;
57443;SDS011;43289;52.962;6.196;2022-07-23T09:07:21;1.55;;;0.90;;
57443;SDS011;43289;52.962;6.196;2022-07-23T09:09:46;2.80;;;1.23;;
57443;SDS011;43289;52.962;6.196;2022-07-23T09:12:22;1.65;;;1.10;;
57443;SDS011;43289;52.962;6.196;2022-07-23T09:14:51;1.58;;;1.10;;
57443;SDS011;43289;52.962;6.196;2022-07-23T09:17:17;1.77;;;0.90;;
57443;SDS011;43289;52.962;6.196;2022-07-23T09:19:44;1.52;;;1.02;;
57443;SDS011;43289;52.962;6.196;2022-07-23T09:22:44;2.17;;;1.02;;
57443;SDS011;43289;52.962;6.196;2022-07-23T09:27:47;2.67;;;1.00;;
57443;SDS011;43289;52.962;6.196;2022-07-23T09:30:18;2.28;;;1.10;;
57443;SDS011;43289;52.962;6.196;2022-07-23T09:32:44;1.65;;;1.25;;
57443;SDS011;43289;52.962;6.196;2022-07-23T09:35:51;4.22;;;1.30;;
57443;SDS011;43289;52.962;6.196;2022-07-23T09:38:20;3.40;;;1.00;;
57443;SDS011;43289;52.962;6.196;2022-07-23T09:41:04;4.45;;;1.35;;
57443;SDS011;43289;52.962;6.196;2022-07-23T09:43:31;2.70;;;1.23;;
57443;SDS011;43289;52.962;6.196;2022-07-23T09:48:43;1.85;;;1.20;;
57443;SDS011;43289;52.962;6.196;2022-07-23T09:51:09;2.65;;;1.13;;
57443;SDS011;43289;52.962;6.196;2022-07-23T09:53:35;2.00;;;1.20;;
57443;SDS011;43289;52.962;6.196;2022-07-23T09:58:54;1.77;;;1.08;;
57443;SDS011;43289;52.962;6.196;2022-07-23T10:01:42;3.42;;;1.30;;
57443;SDS011;43289;52.962;6.196;2022-07-23T10:04:21;2.22;;;1.58;;
57443;SDS011;43289;52.962;6.196;2022-07-23T10:06:48;2.17;;;1.50;;
57443;SDS011;43289;52.962;6.196;2022-07-23T10:09:16;4.82;;;1.67;;
57443;SDS011;43289;52.962;6.196;2022-07-23T10:11:43;2.30;;;1.65;;
57443;SDS011;43289;52.962;6.196;2022-07-23T10:14:09;4.43;;;1.80;;
57443;SDS011;43289;52.962;6.196;2022-07-23T10:16:35;3.10;;;1.27;;
57443;SDS011;43289;52.962;6.196;2022-07-23T10:22:25;2.75;;;1.50;;
57443;SDS011;43289;52.962;6.196;2022-07-23T10:30:20;2.25;;;1.20;;
57443;SDS011;43289;52.962;6.196;2022-07-23T10:38:11;3.40;;;1.70;;
57443;SDS011;43289;52.962;6.196;2022-07-23T10:40:51;2.55;;;1.55;;
57443;SDS011;43289;52.962;6.196;2022-07-23T10:43:18;2.63;;;1.70;;
57443;SDS011;43289;52.962;6.196;2022-07-23T10:45:45;3.72;;;1.80;;
57443;SDS011;43289;52.962;6.196;2022-07-23T10:48:24;3.13;;;1.55;;
57443;SDS011;43289;52.962;6.196;2022-07-23T10:53:53;3.45;;;1.83;;
57443;SDS011;43289;52.962;6.196;2022-07-23T11:02:48;4.05;;;1.95;;
57443;SDS011;43289;52.962;6.196;2022-07-23T11:05:16;2.92;;;1.67;;
57443;SDS011;43289;52.962;6.196;2022-07-23T11:10:36;4.60;;;1.80;;
57443;SDS011;43289;52.962;6.196;2022-07-23T11:22:33;3.47;;;2.10;;
57443;SDS011;43289;52.962;6.196;2022-07-23T11:25:00;3.80;;;1.95;;
57443;SDS011;43289;52.962;6.196;2022-07-23T11:27:39;3.15;;;1.83;;
57443;SDS011;43289;52.962;6.196;2022-07-23T11:30:10;2.78;;;1.48;;
57443;SDS011;43289;52.962;6.196;2022-07-23T11:35:33;3.78;;;1.73;;
57443;SDS011;43289;52.962;6.196;2022-07-23T11:38:20;3.47;;;1.80;;
57443;SDS011;43289;52.962;6.196;2022-07-23T11:40:48;4.43;;;2.20;;
57443;SDS011;43289;52.962;6.196;2022-07-23T11:43:16;4.18;;;2.58;;
57443;SDS011;43289;52.962;6.196;2022-07-23T11:45:44;6.07;;;1.85;;
57443;SDS011;43289;52.962;6.196;2022-07-23T11:48:21;3.53;;;1.90;;
57443;SDS011;43289;52.962;6.196;2022-07-23T11:50:48;3.75;;;1.90;;
57443;SDS011;43289;52.962;6.196;2022-07-23T11:53:28;3.80;;;1.88;;
57443;SDS011;43289;52.962;6.196;2022-07-23T11:59:37;3.53;;;2.10;;
57443;SDS011;43289;52.962;6.196;2022-07-23T12:02:04;4.47;;;2.10;;
57443;SDS011;43289;52.962;6.196;2022-07-23T12:04:36;3.80;;;1.80;;
57443;SDS011;43289;52.962;6.196;2022-07-23T12:13:09;3.83;;;1.88;;
57443;SDS011;43289;52.962;6.196;2022-07-23T12:15:46;6.55;;;1.98;;
57443;SDS011;43289;52.962;6.196;2022-07-23T12:18:18;3.35;;;1.65;;
57443;SDS011;43289;52.962;6.196;2022-07-23T12:20:47;4.20;;;1.95;;
57443;SDS011;43289;52.962;6.196;2022-07-23T12:23:17;4.00;;;1.92;;
57443;SDS011;43289;52.962;6.196;2022-07-23T12:25:45;3.88;;;2.10;;
57443;SDS011;43289;52.962;6.196;2022-07-23T12:28:16;2.92;;;1.73;;
57443;SDS011;43289;52.962;6.196;2022-07-23T12:30:51;7.82;;;2.38;;
57443;SDS011;43289;52.962;6.196;2022-07-23T12:33:22;4.68;;;1.77;;
57443;SDS011;43289;52.962;6.196;2022-07-23T12:39:32;2.75;;;1.67;;
57443;SDS011;43289;52.962;6.196;2022-07-23T12:45:02;5.00;;;1.98;;
57443;SDS011;43289;52.962;6.196;2022-07-23T12:47:28;2.65;;;1.70;;
57443;SDS011;43289;52.962;6.196;2022-07-23T12:49:54;3.90;;;1.75;;
57443;SDS011;43289;52.962;6.196;2022-07-23T12:52:20;2.83;;;1.80;;
57443;SDS011;43289;52.962;6.196;2022-07-23T12:54:45;2.42;;;1.77;;
57443;SDS011;43289;52.962;6.196;2022-07-23T12:57:11;7.50;;;2.38;;
57443;SDS011;43289;52.962;6.196;2022-07-23T12:59:37;3.22;;;2.00;;
57443;SDS011;43289;52.962;6.196;2022-07-23T13:02:03;3.53;;;2.17;;
57443;SDS011;43289;52.962;6.196;2022-07-23T13:04:29;4.00;;;1.80;;
57443;SDS011;43289;52.962;6.196;2022-07-23T13:06:57;3.88;;;1.85;;
57443;SDS011;43289;52.962;6.196;2022-07-23T13:09:26;3.97;;;1.77;;
57443;SDS011;43289;52.962;6.196;2022-07-23T13:11:53;5.03;;;1.80;;
57443;SDS011;43289;52.962;6.196;2022-07-23T13:14:21;2.92;;;1.60;;
57443;SDS011;43289;52.962;6.196;2022-07-23T13:16:49;4.13;;;2.00;;
57443;SDS011;43289;52.962;6.196;2022-07-23T13:19:15;2.85;;;1.65;;
57443;SDS011;43289;52.962;6.196;2022-07-23T13:21:41;2.38;;;1.70;;
57443;SDS011;43289;52.962;6.196;2022-07-23T13:24:08;2.90;;;1.90;;
57443;SDS011;43289;52.962;6.196;2022-07-23T13:26:34;4.00;;;1.88;;
57443;SDS011;43289;52.962;6.196;2022-07-23T13:29:00;5.43;;;2.10;;
57443;SDS011;43289;52.962;6.196;2022-07-23T13:31:26;3.88;;;1.85;;
57443;SDS011;43289;52.962;6.196;2022-07-23T13:33:52;2.70;;;1.85;;
57443;SDS011;43289;52.962;6.196;2022-07-23T13:36:18;4.63;;;1.80;;
57443;SDS011;43289;52.962;6.196;2022-07-23T13:45:07;3.72;;;1.67;;
57443;SDS011;43289;52.962;6.196;2022-07-23T13:47:33;2.72;;;1.58;;
57443;SDS011;43289;52.962;6.196;2022-07-23T13:49:59;4.13;;;1.92;;
57443;SDS011;43289;52.962;6.196;2022-07-23T13:52:25;3.85;;;1.70;;
57443;SDS011;43289;52.962;6.196;2022-07-23T13:54:51;5.47;;;2.22;;
57443;SDS011;43289;52.962;6.196;2022-07-23T13:57:17;2.80;;;1.58;;
57443;SDS011;43289;52.962;6.196;2022-07-23T13:59:43;4.55;;;1.92;;
57443;SDS011;43289;52.962;6.196;2022-07-23T14:02:09;2.22;;;1.80;;
57443;SDS011;43289;52.962;6.196;2022-07-23T14:04:35;3.00;;;1.80;;
57443;SDS011;43289;52.962;6.196;2022-07-23T14:07:01;4.28;;;2.30;;
57443;SDS011;43289;52.962;6.196;2022-07-23T14:09:27;3.83;;;2.35;;
57443;SDS011;43289;52.962;6.196;2022-07-23T14:11:55;3.42;;;2.30;;
57443;SDS011;43289;52.962;6.196;2022-07-23T14:14:21;3.47;;;2.00;;
57443;SDS011;43289;52.962;6.196;2022-07-23T14:16:47;3.10;;;1.80;;
57443;SDS011;43289;52.962;6.196;2022-07-23T14:19:12;2.72;;;1.90;;
57443;SDS011;43289;52.962;6.196;2022-07-23T14:21:38;3.45;;;1.95;;
57443;SDS011;43289;52.962;6.196;2022-07-23T14:24:03;3.92;;;1.85;;
57443;SDS011;43289;52.962;6.196;2022-07-23T14:26:33;3.35;;;2.03;;
57443;SDS011;43289;52.962;6.196;2022-07-23T14:28:59;3.05;;;1.90;;
57443;SDS011;43289;52.962;6.196;2022-07-23T14:31:25;4.72;;;2.28;;
57443;SDS011;43289;52.962;6.196;2022-07-23T14:37:32;6.25;;;2.47;;
57443;SDS011;43289;52.962;6.196;2022-07-23T14:39:58;3.35;;;1.88;;
57443;SDS011;43289;52.962;6.196;2022-07-23T14:42:24;2.13;;;1.50;;
57443;SDS011;43289;52.962;6.196;2022-07-23T14:44:50;3.30;;;1.70;;
57443;SDS011;43289;52.962;6.196;2022-07-23T14:47:16;4.18;;;2.25;;
57443;SDS011;43289;52.962;6.196;2022-07-23T14:49:41;3.67;;;1.75;;
57443;SDS011;43289;52.962;6.196;2022-07-23T14:52:07;2.40;;;1.50;;
57443;SDS011;43289;52.962;6.196;2022-07-23T14:54:33;2.63;;;1.55;;
57443;SDS011;43289;52.962;6.196;2022-07-23T14:56:59;3.03;;;1.80;;
57443;SDS011;43289;52.962;6.196;2022-07-23T14:59:26;1.88;;;1.38;;
57443;SDS011;43289;52.962;6.196;2022-07-23T15:01:51;5.80;;;2.20;;
57443;SDS011;43289;52.962;6.196;2022-07-23T15:04:17;5.50;;;2.13;;
57443;SDS011;43289;52.962;6.196;2022-07-23T15:06:43;3.20;;;2.00;;
57443;SDS011;43289;52.962;6.196;2022-07-23T15:09:09;3.72;;;1.70;;
57443;SDS011;43289;52.962;6.196;2022-07-23T15:11:38;3.70;;;1.52;;
57443;SDS011;43289;52.962;6.196;2022-07-23T15:14:04;4.00;;;1.80;;
57443;SDS011;43289;52.962;6.196;2022-07-23T15:16:29;3.30;;;1.67;;
57443;SDS011;43289;52.962;6.196;2022-07-23T15:21:50;2.43;;;1.60;;
57443;SDS011;43289;52.962;6.196;2022-07-23T15:24:16;3.40;;;1.60;;
57443;SDS011;43289;52.962;6.196;2022-07-23T15:26:52;2.15;;;1.60;;
57443;SDS011;43289;52.962;6.196;2022-07-23T15:29:17;3.53;;;1.75;;
57443;SDS011;43289;52.962;6.196;2022-07-23T15:31:43;3.65;;;1.65;;
57443;SDS011;43289;52.962;6.196;2022-07-23T15:34:08;4.28;;;1.77;;
57443;SDS011;43289;52.962;6.196;2022-07-23T15:36:35;5.30;;;1.70;;
57443;SDS011;43289;52.962;6.196;2022-07-23T15:39:01;3.30;;;1.63;;
57443;SDS011;43289;52.962;6.196;2022-07-23T15:41:27;4.82;;;2.00;;
57443;SDS011;43289;52.962;6.196;2022-07-23T15:43:52;4.07;;;1.70;;
57443;SDS011;43289;52.962;6.196;2022-07-23T15:46:19;4.53;;;2.35;;
57443;SDS011;43289;52.962;6.196;2022-07-23T15:48:46;2.20;;;1.67;;
57443;SDS011;43289;52.962;6.196;2022-07-23T15:54:36;3.78;;;1.85;;
57443;SDS011;43289;52.962;6.196;2022-07-23T15:57:03;4.10;;;1.70;;
57443;SDS011;43289;52.962;6.196;2022-07-23T15:59:29;4.97;;;2.17;;
57443;SDS011;43289;52.962;6.196;2022-07-23T16:01:55;5.72;;;2.50;;
57443;SDS011;43289;52.962;6.196;2022-07-23T16:04:21;2.72;;;1.80;;
57443;SDS011;43289;52.962;6.196;2022-07-23T16:06:46;3.47;;;1.83;;
57443;SDS011;43289;52.962;6.196;2022-07-23T16:09:12;3.92;;;1.60;;
57443;SDS011;43289;52.962;6.196;2022-07-23T16:11:53;4.05;;;1.85;;
57443;SDS011;43289;52.962;6.196;2022-07-23T16:14:20;3.53;;;1.77;;
57443;SDS011;43289;52.962;6.196;2022-07-23T16:16:46;3.92;;;2.33;;
57443;SDS011;43289;52.962;6.196;2022-07-23T16:19:18;3.85;;;1.75;;
57443;SDS011;43289;52.962;6.196;2022-07-23T16:21:44;3.75;;;1.83;;
57443;SDS011;43289;52.962;6.196;2022-07-23T16:24:09;4.05;;;2.20;;
57443;SDS011;43289;52.962;6.196;2022-07-23T16:26:49;3.08;;;1.60;;
57443;SDS011;43289;52.962;6.196;2022-07-23T16:29:15;2.42;;;1.80;;
57443;SDS011;43289;52.962;6.196;2022-07-23T16:31:40;3.25;;;1.75;;
57443;SDS011;43289;52.962;6.196;2022-07-23T16:37:47;3.00;;;1.90;;
57443;SDS011;43289;52.962;6.196;2022-07-23T16:40:13;4.63;;;2.15;;
57443;SDS011;43289;52.962;6.196;2022-07-23T16:42:38;2.50;;;1.73;;
57443;SDS011;43289;52.962;6.196;2022-07-23T16:45:04;4.75;;;1.90;;
57443;SDS011;43289;52.962;6.196;2022-07-23T16:47:31;2.65;;;2.00;;
57443;SDS011;43289;52.962;6.196;2022-07-23T16:49:57;3.60;;;2.03;;
57443;SDS011;43289;52.962;6.196;2022-07-23T16:52:22;3.67;;;2.20;;
57443;SDS011;43289;52.962;6.196;2022-07-23T16:54:48;2.58;;;2.17;;
57443;SDS011;43289;52.962;6.196;2022-07-23T16:57:14;2.50;;;1.75;;
57443;SDS011;43289;52.962;6.196;2022-07-23T16:59:40;3.13;;;1.95;;
57443;SDS011;43289;52.962;6.196;2022-07-23T17:02:06;2.75;;;2.00;;